sensor_id;sensor_type;location;lat;lon;timestamp;P1;durP1;ratioP1;P2;durP2;ratioP2
61911;SDS011;49973;52.084;5.412;2024-01-30T00:01:11;6.20;;;4.43;;
61911;SDS011;49973;52.084;5.412;2024-01-30T00:03:39;7.10;;;4.27;;
61911;SDS011;49973;52.084;5.412;2024-01-30T00:06:08;4.00;;;3.63;;
61911;SDS011;49973;52.084;5.412;2024-01-30T00:08:37;9.63;;;4.47;;
61911;SDS011;49973;52.084;5.412;2024-01-30T00:11:08;10.87;;;3.87;;
61911;SDS011;49973;52.084;5.412;2024-01-30T00:13:38;4.30;;;3.17;;
61911;SDS011;49973;52.084;5.412;2024-01-30T00:16:07;6.90;;;4.10;;
61911;SDS011;49973;52.084;5.412;2024-01-30T00:18:36;6.17;;;3.23;;
61911;SDS011;49973;52.084;5.412;2024-01-30T00:21:06;5.30;;;3.23;;
61911;SDS011;49973;52.084;5.412;2024-01-30T00:23:35;6.70;;;4.10;;
61911;SDS011;49973;52.084;5.412;2024-01-30T00:26:04;6.73;;;3.50;;
61911;SDS011;49973;52.084;5.412;2024-01-30T00:28:34;5.20;;;3.27;;
61911;SDS011;49973;52.084;5.412;2024-01-30T00:31:03;6.13;;;3.50;;
61911;SDS011;49973;52.084;5.412;2024-01-30T00:33:32;7.40;;;4.27;;
61911;SDS011;49973;52.084;5.412;2024-01-30T00:36:01;5.33;;;3.63;;
61911;SDS011;49973;52.084;5.412;2024-01-30T00:38:30;5.83;;;3.20;;
61911;SDS011;49973;52.084;5.412;2024-01-30T00:40:58;6.37;;;3.70;;
61911;SDS011;49973;52.084;5.412;2024-01-30T00:43:28;4.33;;;3.53;;
61911;SDS011;49973;52.084;5.412;2024-01-30T00:45:59;5.10;;;3.50;;
61911;SDS011;49973;52.084;5.412;2024-01-30T00:48:29;6.83;;;3.70;;
61911;SDS011;49973;52.084;5.412;2024-01-30T00:50:58;6.83;;;3.77;;
61911;SDS011;49973;52.084;5.412;2024-01-30T00:53:27;5.13;;;2.67;;
61911;SDS011;49973;52.084;5.412;2024-01-30T00:55:56;5.00;;;3.07;;
61911;SDS011;49973;52.084;5.412;2024-01-30T00:58:25;7.27;;;3.47;;
61911;SDS011;49973;52.084;5.412;2024-01-30T01:00:54;3.23;;;2.90;;
61911;SDS011;49973;52.084;5.412;2024-01-30T01:03:24;4.10;;;3.07;;
61911;SDS011;49973;52.084;5.412;2024-01-30T01:05:53;9.30;;;3.47;;
61911;SDS011;49973;52.084;5.412;2024-01-30T01:08:22;4.90;;;3.67;;
61911;SDS011;49973;52.084;5.412;2024-01-30T01:10:52;4.30;;;3.37;;
61911;SDS011;49973;52.084;5.412;2024-01-30T01:13:21;6.13;;;4.07;;
61911;SDS011;49973;52.084;5.412;2024-01-30T01:15:49;5.80;;;3.47;;
61911;SDS011;49973;52.084;5.412;2024-01-30T01:18:18;4.33;;;3.50;;
61911;SDS011;49973;52.084;5.412;2024-01-30T01:20:48;12.03;;;3.47;;
61911;SDS011;49973;52.084;5.412;2024-01-30T01:23:17;7.87;;;3.67;;
61911;SDS011;49973;52.084;5.412;2024-01-30T01:25:46;6.37;;;3.57;;
61911;SDS011;49973;52.084;5.412;2024-01-30T01:28:15;9.20;;;3.77;;
61911;SDS011;49973;52.084;5.412;2024-01-30T01:30:44;4.10;;;3.23;;
61911;SDS011;49973;52.084;5.412;2024-01-30T01:33:13;3.83;;;3.07;;
61911;SDS011;49973;52.084;5.412;2024-01-30T01:35:42;5.70;;;3.50;;
61911;SDS011;49973;52.084;5.412;2024-01-30T01:38:12;4.90;;;2.90;;
61911;SDS011;49973;52.084;5.412;2024-01-30T01:40:41;5.07;;;3.40;;
61911;SDS011;49973;52.084;5.412;2024-01-30T01:43:11;5.63;;;3.07;;
61911;SDS011;49973;52.084;5.412;2024-01-30T01:45:39;5.30;;;3.03;;
61911;SDS011;49973;52.084;5.412;2024-01-30T01:48:08;4.70;;;3.47;;
61911;SDS011;49973;52.084;5.412;2024-01-30T01:50:38;5.83;;;2.70;;
61911;SDS011;49973;52.084;5.412;2024-01-30T01:53:08;4.93;;;3.27;;
61911;SDS011;49973;52.084;5.412;2024-01-30T01:55:38;6.70;;;3.67;;
61911;SDS011;49973;52.084;5.412;2024-01-30T01:58:08;5.43;;;3.40;;
61911;SDS011;49973;52.084;5.412;2024-01-30T02:00:40;3.97;;;2.83;;
61911;SDS011;49973;52.084;5.412;2024-01-30T02:03:09;5.03;;;3.30;;
61911;SDS011;49973;52.084;5.412;2024-01-30T02:05:40;5.03;;;3.53;;
61911;SDS011;49973;52.084;5.412;2024-01-30T02:08:10;6.43;;;3.50;;
61911;SDS011;49973;52.084;5.412;2024-01-30T02:10:40;4.40;;;3.30;;
61911;SDS011;49973;52.084;5.412;2024-01-30T02:13:09;5.70;;;3.43;;
61911;SDS011;49973;52.084;5.412;2024-01-30T02:15:38;5.20;;;3.63;;
61911;SDS011;49973;52.084;5.412;2024-01-30T02:18:07;5.53;;;2.90;;
61911;SDS011;49973;52.084;5.412;2024-01-30T02:20:36;5.80;;;2.83;;
61911;SDS011;49973;52.084;5.412;2024-01-30T02:23:08;4.20;;;3.50;;
61911;SDS011;49973;52.084;5.412;2024-01-30T02:25:39;6.40;;;4.47;;
61911;SDS011;49973;52.084;5.412;2024-01-30T02:28:11;3.70;;;3.03;;
61911;SDS011;49973;52.084;5.412;2024-01-30T02:30:42;3.83;;;2.93;;
61911;SDS011;49973;52.084;5.412;2024-01-30T02:33:11;5.37;;;3.03;;
61911;SDS011;49973;52.084;5.412;2024-01-30T02:35:40;5.37;;;3.43;;
61911;SDS011;49973;52.084;5.412;2024-01-30T02:38:10;3.40;;;2.83;;
61911;SDS011;49973;52.084;5.412;2024-01-30T02:40:39;9.10;;;3.97;;
61911;SDS011;49973;52.084;5.412;2024-01-30T02:43:08;5.80;;;3.40;;
61911;SDS011;49973;52.084;5.412;2024-01-30T02:45:37;6.40;;;4.07;;
61911;SDS011;49973;52.084;5.412;2024-01-30T02:48:06;6.90;;;4.23;;
61911;SDS011;49973;52.084;5.412;2024-01-30T02:50:35;8.57;;;4.47;;
61911;SDS011;49973;52.084;5.412;2024-01-30T02:53:04;6.67;;;3.33;;
61911;SDS011;49973;52.084;5.412;2024-01-30T02:55:35;6.47;;;4.10;;
61911;SDS011;49973;52.084;5.412;2024-01-30T02:58:07;6.30;;;3.80;;
61911;SDS011;49973;52.084;5.412;2024-01-30T03:00:36;6.97;;;3.87;;
61911;SDS011;49973;52.084;5.412;2024-01-30T03:03:06;6.73;;;4.53;;
61911;SDS011;49973;52.084;5.412;2024-01-30T03:05:35;7.23;;;3.80;;
61911;SDS011;49973;52.084;5.412;2024-01-30T03:08:04;6.17;;;4.60;;
61911;SDS011;49973;52.084;5.412;2024-01-30T03:10:35;7.13;;;3.93;;
61911;SDS011;49973;52.084;5.412;2024-01-30T03:13:07;5.10;;;3.13;;
61911;SDS011;49973;52.084;5.412;2024-01-30T03:15:35;5.83;;;3.30;;
61911;SDS011;49973;52.084;5.412;2024-01-30T03:18:05;4.63;;;3.10;;
61911;SDS011;49973;52.084;5.412;2024-01-30T03:20:34;6.53;;;3.27;;
61911;SDS011;49973;52.084;5.412;2024-01-30T03:23:03;4.07;;;3.10;;
61911;SDS011;49973;52.084;5.412;2024-01-30T03:25:32;3.07;;;2.60;;
61911;SDS011;49973;52.084;5.412;2024-01-30T03:28:04;3.27;;;2.00;;
61911;SDS011;49973;52.084;5.412;2024-01-30T03:30:34;4.87;;;2.70;;
61911;SDS011;49973;52.084;5.412;2024-01-30T03:33:03;4.63;;;2.90;;
61911;SDS011;49973;52.084;5.412;2024-01-30T03:35:32;2.80;;;2.03;;
61911;SDS011;49973;52.084;5.412;2024-01-30T03:38:02;4.47;;;2.77;;
61911;SDS011;49973;52.084;5.412;2024-01-30T03:40:31;4.07;;;2.87;;
61911;SDS011;49973;52.084;5.412;2024-01-30T03:43:01;3.23;;;2.90;;
61911;SDS011;49973;52.084;5.412;2024-01-30T03:45:32;3.67;;;2.80;;
61911;SDS011;49973;52.084;5.412;2024-01-30T03:48:01;5.73;;;2.83;;
61911;SDS011;49973;52.084;5.412;2024-01-30T03:50:33;3.87;;;3.07;;
61911;SDS011;49973;52.084;5.412;2024-01-30T03:53:01;6.30;;;2.83;;
61911;SDS011;49973;52.084;5.412;2024-01-30T03:55:30;6.40;;;3.20;;
61911;SDS011;49973;52.084;5.412;2024-01-30T03:57:59;3.63;;;2.30;;
61911;SDS011;49973;52.084;5.412;2024-01-30T04:00:29;6.47;;;3.07;;
61911;SDS011;49973;52.084;5.412;2024-01-30T04:02:58;3.30;;;2.17;;
61911;SDS011;49973;52.084;5.412;2024-01-30T04:05:27;4.07;;;2.40;;
61911;SDS011;49973;52.084;5.412;2024-01-30T04:07:56;3.43;;;2.47;;
61911;SDS011;49973;52.084;5.412;2024-01-30T04:10:25;3.63;;;2.27;;
61911;SDS011;49973;52.084;5.412;2024-01-30T04:12:54;3.40;;;2.27;;
61911;SDS011;49973;52.084;5.412;2024-01-30T04:15:24;4.10;;;2.50;;
61911;SDS011;49973;52.084;5.412;2024-01-30T04:17:57;4.67;;;2.27;;
61911;SDS011;49973;52.084;5.412;2024-01-30T04:20:26;4.63;;;3.00;;
61911;SDS011;49973;52.084;5.412;2024-01-30T04:22:55;6.33;;;2.70;;
61911;SDS011;49973;52.084;5.412;2024-01-30T04:25:24;8.67;;;2.97;;
61911;SDS011;49973;52.084;5.412;2024-01-30T04:27:53;5.10;;;3.30;;
61911;SDS011;49973;52.084;5.412;2024-01-30T04:30:22;2.60;;;2.40;;
61911;SDS011;49973;52.084;5.412;2024-01-30T04:32:52;4.83;;;2.47;;
61911;SDS011;49973;52.084;5.412;2024-01-30T04:35:21;5.73;;;2.70;;
61911;SDS011;49973;52.084;5.412;2024-01-30T04:37:52;10.37;;;3.20;;
61911;SDS011;49973;52.084;5.412;2024-01-30T04:40:21;3.40;;;2.30;;
61911;SDS011;49973;52.084;5.412;2024-01-30T04:42:50;4.30;;;2.43;;
61911;SDS011;49973;52.084;5.412;2024-01-30T04:45:18;5.50;;;3.10;;
61911;SDS011;49973;52.084;5.412;2024-01-30T04:47:47;4.83;;;2.80;;
61911;SDS011;49973;52.084;5.412;2024-01-30T04:50:17;3.37;;;2.47;;
61911;SDS011;49973;52.084;5.412;2024-01-30T04:52:46;4.67;;;3.03;;
61911;SDS011;49973;52.084;5.412;2024-01-30T04:55:15;2.77;;;2.00;;
61911;SDS011;49973;52.084;5.412;2024-01-30T04:57:47;2.77;;;2.17;;
61911;SDS011;49973;52.084;5.412;2024-01-30T05:00:16;3.67;;;2.67;;
61911;SDS011;49973;52.084;5.412;2024-01-30T05:02:45;4.20;;;2.47;;
61911;SDS011;49973;52.084;5.412;2024-01-30T05:05:14;3.50;;;2.33;;
61911;SDS011;49973;52.084;5.412;2024-01-30T05:07:45;3.53;;;2.70;;
61911;SDS011;49973;52.084;5.412;2024-01-30T05:10:13;3.33;;;2.40;;
61911;SDS011;49973;52.084;5.412;2024-01-30T05:12:42;5.17;;;2.70;;
61911;SDS011;49973;52.084;5.412;2024-01-30T05:15:11;5.93;;;2.87;;
61911;SDS011;49973;52.084;5.412;2024-01-30T05:17:39;4.97;;;3.20;;
61911;SDS011;49973;52.084;5.412;2024-01-30T05:20:09;4.17;;;2.70;;
61911;SDS011;49973;52.084;5.412;2024-01-30T05:22:38;4.50;;;2.33;;
61911;SDS011;49973;52.084;5.412;2024-01-30T05:25:13;4.07;;;2.37;;
61911;SDS011;49973;52.084;5.412;2024-01-30T05:27:42;3.63;;;2.93;;
61911;SDS011;49973;52.084;5.412;2024-01-30T05:30:11;3.10;;;2.33;;
61911;SDS011;49973;52.084;5.412;2024-01-30T05:32:40;5.37;;;2.80;;
61911;SDS011;49973;52.084;5.412;2024-01-30T05:35:09;4.20;;;2.70;;
61911;SDS011;49973;52.084;5.412;2024-01-30T05:37:37;5.53;;;3.57;;
61911;SDS011;49973;52.084;5.412;2024-01-30T05:40:06;2.80;;;2.17;;
61911;SDS011;49973;52.084;5.412;2024-01-30T05:42:37;3.23;;;2.53;;
61911;SDS011;49973;52.084;5.412;2024-01-30T05:45:06;4.70;;;3.10;;
61911;SDS011;49973;52.084;5.412;2024-01-30T05:47:36;3.30;;;2.40;;
61911;SDS011;49973;52.084;5.412;2024-01-30T05:50:05;6.87;;;3.13;;
61911;SDS011;49973;52.084;5.412;2024-01-30T05:52:35;4.57;;;2.77;;
61911;SDS011;49973;52.084;5.412;2024-01-30T05:55:04;5.57;;;3.10;;
61911;SDS011;49973;52.084;5.412;2024-01-30T05:57:33;11.00;;;3.77;;
61911;SDS011;49973;52.084;5.412;2024-01-30T06:00:03;5.87;;;2.53;;
61911;SDS011;49973;52.084;5.412;2024-01-30T06:02:33;3.17;;;2.63;;
61911;SDS011;49973;52.084;5.412;2024-01-30T06:05:01;4.13;;;2.63;;
61911;SDS011;49973;52.084;5.412;2024-01-30T06:07:31;4.83;;;2.37;;
61911;SDS011;49973;52.084;5.412;2024-01-30T06:10:03;4.33;;;3.07;;
61911;SDS011;49973;52.084;5.412;2024-01-30T06:12:33;2.33;;;2.07;;
61911;SDS011;49973;52.084;5.412;2024-01-30T06:15:04;2.43;;;2.23;;
61911;SDS011;49973;52.084;5.412;2024-01-30T06:17:34;3.63;;;2.07;;
61911;SDS011;49973;52.084;5.412;2024-01-30T06:20:03;4.83;;;2.97;;
61911;SDS011;49973;52.084;5.412;2024-01-30T06:22:32;6.43;;;2.97;;
61911;SDS011;49973;52.084;5.412;2024-01-30T06:25:01;5.00;;;2.50;;
61911;SDS011;49973;52.084;5.412;2024-01-30T06:27:30;6.30;;;2.70;;
61911;SDS011;49973;52.084;5.412;2024-01-30T06:29:59;3.00;;;2.53;;
61911;SDS011;49973;52.084;5.412;2024-01-30T06:32:30;3.90;;;2.70;;
61911;SDS011;49973;52.084;5.412;2024-01-30T06:35:01;3.97;;;2.77;;
61911;SDS011;49973;52.084;5.412;2024-01-30T06:37:30;3.80;;;3.00;;
61911;SDS011;49973;52.084;5.412;2024-01-30T06:39:59;4.33;;;2.20;;
61911;SDS011;49973;52.084;5.412;2024-01-30T06:42:28;3.03;;;2.33;;
61911;SDS011;49973;52.084;5.412;2024-01-30T06:44:57;4.43;;;2.67;;
61911;SDS011;49973;52.084;5.412;2024-01-30T06:47:25;3.70;;;2.30;;
61911;SDS011;49973;52.084;5.412;2024-01-30T06:49:56;3.13;;;2.63;;
61911;SDS011;49973;52.084;5.412;2024-01-30T06:52:26;4.70;;;3.07;;
61911;SDS011;49973;52.084;5.412;2024-01-30T06:54:55;3.87;;;2.73;;
61911;SDS011;49973;52.084;5.412;2024-01-30T06:57:23;3.57;;;2.30;;
61911;SDS011;49973;52.084;5.412;2024-01-30T06:59:54;9.30;;;3.13;;
61911;SDS011;49973;52.084;5.412;2024-01-30T07:02:23;3.37;;;2.23;;
61911;SDS011;49973;52.084;5.412;2024-01-30T07:04:52;7.17;;;3.13;;
61911;SDS011;49973;52.084;5.412;2024-01-30T07:07:22;4.60;;;2.60;;
61911;SDS011;49973;52.084;5.412;2024-01-30T07:09:51;4.00;;;2.73;;
61911;SDS011;49973;52.084;5.412;2024-01-30T07:12:24;9.30;;;3.00;;
61911;SDS011;49973;52.084;5.412;2024-01-30T07:14:53;6.67;;;2.70;;
61911;SDS011;49973;52.084;5.412;2024-01-30T07:17:23;4.00;;;2.17;;
61911;SDS011;49973;52.084;5.412;2024-01-30T07:19:52;5.27;;;2.83;;
61911;SDS011;49973;52.084;5.412;2024-01-30T07:22:22;5.27;;;2.33;;
61911;SDS011;49973;52.084;5.412;2024-01-30T07:24:51;4.27;;;2.37;;
61911;SDS011;49973;52.084;5.412;2024-01-30T07:27:19;3.17;;;2.27;;
61911;SDS011;49973;52.084;5.412;2024-01-30T07:29:48;6.80;;;2.50;;
61911;SDS011;49973;52.084;5.412;2024-01-30T07:32:17;6.97;;;2.87;;
61911;SDS011;49973;52.084;5.412;2024-01-30T07:34:46;5.13;;;2.53;;
61911;SDS011;49973;52.084;5.412;2024-01-30T07:37:34;5.63;;;2.70;;
61911;SDS011;49973;52.084;5.412;2024-01-30T07:40:03;3.50;;;2.40;;
61911;SDS011;49973;52.084;5.412;2024-01-30T07:42:34;4.07;;;3.03;;
61911;SDS011;49973;52.084;5.412;2024-01-30T07:45:03;3.23;;;2.43;;
61911;SDS011;49973;52.084;5.412;2024-01-30T07:47:32;5.17;;;2.90;;
61911;SDS011;49973;52.084;5.412;2024-01-30T07:50:00;5.87;;;2.97;;
61911;SDS011;49973;52.084;5.412;2024-01-30T07:52:30;4.43;;;3.13;;
61911;SDS011;49973;52.084;5.412;2024-01-30T07:55:01;5.40;;;2.20;;
61911;SDS011;49973;52.084;5.412;2024-01-30T07:57:31;6.97;;;2.60;;
61911;SDS011;49973;52.084;5.412;2024-01-30T07:59:59;2.43;;;1.93;;
61911;SDS011;49973;52.084;5.412;2024-01-30T08:02:32;4.03;;;2.30;;
61911;SDS011;49973;52.084;5.412;2024-01-30T08:05:01;4.83;;;2.87;;
61911;SDS011;49973;52.084;5.412;2024-01-30T08:07:30;4.30;;;2.70;;
61911;SDS011;49973;52.084;5.412;2024-01-30T08:10:01;2.80;;;2.23;;
61911;SDS011;49973;52.084;5.412;2024-01-30T08:12:30;3.87;;;2.47;;
61911;SDS011;49973;52.084;5.412;2024-01-30T08:14:59;4.40;;;3.20;;
61911;SDS011;49973;52.084;5.412;2024-01-30T08:17:27;6.00;;;2.70;;
61911;SDS011;49973;52.084;5.412;2024-01-30T08:19:56;5.63;;;3.57;;
61911;SDS011;49973;52.084;5.412;2024-01-30T08:22:25;8.47;;;3.60;;
61911;SDS011;49973;52.084;5.412;2024-01-30T08:24:54;6.33;;;2.97;;
61911;SDS011;49973;52.084;5.412;2024-01-30T08:27:24;9.03;;;2.80;;
61911;SDS011;49973;52.084;5.412;2024-01-30T08:29:53;4.77;;;2.80;;
61911;SDS011;49973;52.084;5.412;2024-01-30T08:32:22;4.17;;;2.73;;
61911;SDS011;49973;52.084;5.412;2024-01-30T08:34:51;5.90;;;2.77;;
61911;SDS011;49973;52.084;5.412;2024-01-30T08:37:21;4.23;;;2.83;;
61911;SDS011;49973;52.084;5.412;2024-01-30T08:39:50;6.10;;;2.43;;
61911;SDS011;49973;52.084;5.412;2024-01-30T08:42:21;5.57;;;3.03;;
61911;SDS011;49973;52.084;5.412;2024-01-30T08:44:51;5.37;;;2.60;;
61911;SDS011;49973;52.084;5.412;2024-01-30T08:47:21;6.47;;;2.77;;
61911;SDS011;49973;52.084;5.412;2024-01-30T08:49:50;5.53;;;2.80;;
61911;SDS011;49973;52.084;5.412;2024-01-30T08:52:18;10.10;;;2.87;;
61911;SDS011;49973;52.084;5.412;2024-01-30T08:54:47;4.10;;;2.83;;
61911;SDS011;49973;52.084;5.412;2024-01-30T08:57:16;4.17;;;2.80;;
61911;SDS011;49973;52.084;5.412;2024-01-30T08:59:45;3.07;;;2.17;;
61911;SDS011;49973;52.084;5.412;2024-01-30T09:02:14;3.40;;;2.33;;
61911;SDS011;49973;52.084;5.412;2024-01-30T09:04:45;4.03;;;2.67;;
61911;SDS011;49973;52.084;5.412;2024-01-30T09:07:14;4.60;;;2.77;;
61911;SDS011;49973;52.084;5.412;2024-01-30T09:09:42;7.63;;;2.77;;
61911;SDS011;49973;52.084;5.412;2024-01-30T09:12:12;4.73;;;3.17;;
61911;SDS011;49973;52.084;5.412;2024-01-30T09:14:41;5.00;;;2.90;;
61911;SDS011;49973;52.084;5.412;2024-01-30T09:17:10;3.90;;;2.73;;
61911;SDS011;49973;52.084;5.412;2024-01-30T09:19:40;5.47;;;3.30;;
61911;SDS011;49973;52.084;5.412;2024-01-30T09:22:09;4.93;;;2.57;;
61911;SDS011;49973;52.084;5.412;2024-01-30T09:24:37;8.30;;;2.17;;
61911;SDS011;49973;52.084;5.412;2024-01-30T09:27:06;3.97;;;2.10;;
61911;SDS011;49973;52.084;5.412;2024-01-30T09:29:35;7.70;;;3.30;;
61911;SDS011;49973;52.084;5.412;2024-01-30T09:32:04;13.10;;;3.37;;
61911;SDS011;49973;52.084;5.412;2024-01-30T09:34:33;4.30;;;3.07;;
61911;SDS011;49973;52.084;5.412;2024-01-30T09:37:04;3.13;;;2.33;;
61911;SDS011;49973;52.084;5.412;2024-01-30T09:39:33;4.93;;;2.40;;
61911;SDS011;49973;52.084;5.412;2024-01-30T09:42:02;4.37;;;2.43;;
61911;SDS011;49973;52.084;5.412;2024-01-30T09:44:38;4.37;;;2.50;;
61911;SDS011;49973;52.084;5.412;2024-01-30T09:47:11;7.47;;;3.13;;
61911;SDS011;49973;52.084;5.412;2024-01-30T09:49:40;3.67;;;2.80;;
61911;SDS011;49973;52.084;5.412;2024-01-30T09:52:12;4.00;;;2.57;;
61911;SDS011;49973;52.084;5.412;2024-01-30T09:54:42;6.10;;;2.77;;
61911;SDS011;49973;52.084;5.412;2024-01-30T09:57:13;4.60;;;2.80;;
61911;SDS011;49973;52.084;5.412;2024-01-30T09:59:41;4.50;;;3.00;;
61911;SDS011;49973;52.084;5.412;2024-01-30T10:02:11;3.93;;;2.50;;
61911;SDS011;49973;52.084;5.412;2024-01-30T10:04:39;3.27;;;2.20;;
61911;SDS011;49973;52.084;5.412;2024-01-30T10:07:08;6.00;;;2.40;;
61911;SDS011;49973;52.084;5.412;2024-01-30T10:09:41;4.90;;;2.57;;
61911;SDS011;49973;52.084;5.412;2024-01-30T10:12:09;3.33;;;2.67;;
61911;SDS011;49973;52.084;5.412;2024-01-30T10:14:38;3.00;;;2.30;;
61911;SDS011;49973;52.084;5.412;2024-01-30T10:17:07;6.23;;;2.57;;
61911;SDS011;49973;52.084;5.412;2024-01-30T10:19:47;4.03;;;3.17;;
61911;SDS011;49973;52.084;5.412;2024-01-30T10:22:16;4.57;;;2.60;;
61911;SDS011;49973;52.084;5.412;2024-01-30T10:24:47;7.10;;;3.23;;
61911;SDS011;49973;52.084;5.412;2024-01-30T10:27:16;5.43;;;2.73;;
61911;SDS011;49973;52.084;5.412;2024-01-30T10:29:51;10.63;;;3.40;;
61911;SDS011;49973;52.084;5.412;2024-01-30T10:32:20;5.00;;;3.07;;
61911;SDS011;49973;52.084;5.412;2024-01-30T10:34:49;5.80;;;2.50;;
61911;SDS011;49973;52.084;5.412;2024-01-30T10:37:18;9.17;;;3.23;;
61911;SDS011;49973;52.084;5.412;2024-01-30T10:39:52;9.53;;;3.03;;
61911;SDS011;49973;52.084;5.412;2024-01-30T10:42:25;4.57;;;2.87;;
61911;SDS011;49973;52.084;5.412;2024-01-30T10:44:57;3.83;;;2.93;;
61911;SDS011;49973;52.084;5.412;2024-01-30T10:47:30;4.70;;;3.00;;
61911;SDS011;49973;52.084;5.412;2024-01-30T10:50:01;3.17;;;2.87;;
61911;SDS011;49973;52.084;5.412;2024-01-30T10:52:31;4.83;;;3.20;;
61911;SDS011;49973;52.084;5.412;2024-01-30T10:55:02;5.57;;;3.23;;
61911;SDS011;49973;52.084;5.412;2024-01-30T10:57:34;4.00;;;2.30;;
61911;SDS011;49973;52.084;5.412;2024-01-30T11:00:04;4.53;;;2.83;;
61911;SDS011;49973;52.084;5.412;2024-01-30T11:02:37;4.90;;;2.57;;
61911;SDS011;49973;52.084;5.412;2024-01-30T11:05:07;3.90;;;2.73;;
61911;SDS011;49973;52.084;5.412;2024-01-30T11:07:38;4.33;;;2.33;;
61911;SDS011;49973;52.084;5.412;2024-01-30T11:10:09;3.73;;;2.47;;
61911;SDS011;49973;52.084;5.412;2024-01-30T11:12:42;5.37;;;2.77;;
61911;SDS011;49973;52.084;5.412;2024-01-30T11:15:13;7.03;;;2.60;;
61911;SDS011;49973;52.084;5.412;2024-01-30T11:17:44;3.33;;;2.20;;
61911;SDS011;49973;52.084;5.412;2024-01-30T11:20:19;4.70;;;2.87;;
61911;SDS011;49973;52.084;5.412;2024-01-30T11:22:50;9.83;;;2.63;;
61911;SDS011;49973;52.084;5.412;2024-01-30T11:25:22;5.87;;;2.80;;
61911;SDS011;49973;52.084;5.412;2024-01-30T11:27:52;2.40;;;2.07;;
61911;SDS011;49973;52.084;5.412;2024-01-30T11:30:22;6.87;;;2.50;;
61911;SDS011;49973;52.084;5.412;2024-01-30T11:33:01;2.23;;;1.60;;
61911;SDS011;49973;52.084;5.412;2024-01-30T11:35:34;4.93;;;1.93;;
61911;SDS011;49973;52.084;5.412;2024-01-30T11:38:03;5.60;;;2.00;;
61911;SDS011;49973;52.084;5.412;2024-01-30T11:40:34;2.57;;;1.63;;
61911;SDS011;49973;52.084;5.412;2024-01-30T11:43:04;5.43;;;1.60;;
61911;SDS011;49973;52.084;5.412;2024-01-30T11:45:34;1.90;;;1.70;;
61911;SDS011;49973;52.084;5.412;2024-01-30T11:48:04;1.57;;;1.33;;
61911;SDS011;49973;52.084;5.412;2024-01-30T11:50:35;1.03;;;0.93;;
61911;SDS011;49973;52.084;5.412;2024-01-30T11:53:06;1.37;;;1.20;;
61911;SDS011;49973;52.084;5.412;2024-01-30T11:55:37;1.73;;;0.93;;
61911;SDS011;49973;52.084;5.412;2024-01-30T11:58:06;6.40;;;1.63;;
61911;SDS011;49973;52.084;5.412;2024-01-30T12:00:35;3.77;;;1.43;;
61911;SDS011;49973;52.084;5.412;2024-01-30T12:03:04;4.37;;;0.90;;
61911;SDS011;49973;52.084;5.412;2024-01-30T12:05:34;1.37;;;0.90;;
61911;SDS011;49973;52.084;5.412;2024-01-30T12:08:03;3.73;;;1.40;;
61911;SDS011;49973;52.084;5.412;2024-01-30T12:10:34;2.10;;;1.10;;
61911;SDS011;49973;52.084;5.412;2024-01-30T12:13:05;4.73;;;1.00;;
61911;SDS011;49973;52.084;5.412;2024-01-30T12:15:33;2.93;;;1.57;;
61911;SDS011;49973;52.084;5.412;2024-01-30T12:18:05;0.50;;;0.50;;
61911;SDS011;49973;52.084;5.412;2024-01-30T12:20:35;0.67;;;0.67;;
61911;SDS011;49973;52.084;5.412;2024-01-30T12:23:04;0.70;;;0.70;;
61911;SDS011;49973;52.084;5.412;2024-01-30T12:25:33;0.87;;;0.87;;
61911;SDS011;49973;52.084;5.412;2024-01-30T12:28:03;3.53;;;1.37;;
61911;SDS011;49973;52.084;5.412;2024-01-30T12:30:32;3.27;;;1.47;;
61911;SDS011;49973;52.084;5.412;2024-01-30T12:33:03;1.73;;;1.17;;
61911;SDS011;49973;52.084;5.412;2024-01-30T12:35:35;6.03;;;1.63;;
61911;SDS011;49973;52.084;5.412;2024-01-30T12:38:14;3.20;;;1.87;;
61911;SDS011;49973;52.084;5.412;2024-01-30T12:40:43;1.00;;;0.90;;
61911;SDS011;49973;52.084;5.412;2024-01-30T12:43:14;0.93;;;0.83;;
61911;SDS011;49973;52.084;5.412;2024-01-30T12:45:57;7.73;;;1.50;;
61911;SDS011;49973;52.084;5.412;2024-01-30T12:48:28;1.73;;;0.90;;
61911;SDS011;49973;52.084;5.412;2024-01-30T12:50:57;2.43;;;0.93;;
61911;SDS011;49973;52.084;5.412;2024-01-30T12:53:26;1.00;;;0.90;;
61911;SDS011;49973;52.084;5.412;2024-01-30T12:55:55;0.73;;;0.70;;
61911;SDS011;49973;52.084;5.412;2024-01-30T12:58:25;4.27;;;1.23;;
61911;SDS011;49973;52.084;5.412;2024-01-30T13:00:53;0.80;;;0.80;;
61911;SDS011;49973;52.084;5.412;2024-01-30T13:03:22;2.07;;;0.73;;
61911;SDS011;49973;52.084;5.412;2024-01-30T13:05:51;0.93;;;0.73;;
61911;SDS011;49973;52.084;5.412;2024-01-30T13:08:20;1.63;;;1.00;;
61911;SDS011;49973;52.084;5.412;2024-01-30T13:10:49;1.33;;;0.73;;
61911;SDS011;49973;52.084;5.412;2024-01-30T13:13:18;1.03;;;0.87;;
61911;SDS011;49973;52.084;5.412;2024-01-30T13:15:48;1.70;;;0.90;;
61911;SDS011;49973;52.084;5.412;2024-01-30T13:18:17;8.93;;;1.37;;
61911;SDS011;49973;52.084;5.412;2024-01-30T13:20:46;4.27;;;0.73;;
61911;SDS011;49973;52.084;5.412;2024-01-30T13:23:15;4.67;;;1.00;;
61911;SDS011;49973;52.084;5.412;2024-01-30T13:25:43;0.83;;;0.77;;
61911;SDS011;49973;52.084;5.412;2024-01-30T13:28:12;2.77;;;1.03;;
61911;SDS011;49973;52.084;5.412;2024-01-30T13:30:41;1.33;;;0.70;;
61911;SDS011;49973;52.084;5.412;2024-01-30T13:33:10;0.90;;;0.83;;
61911;SDS011;49973;52.084;5.412;2024-01-30T13:35:39;2.43;;;1.13;;
61911;SDS011;49973;52.084;5.412;2024-01-30T13:38:09;3.60;;;0.70;;
61911;SDS011;49973;52.084;5.412;2024-01-30T13:40:38;0.40;;;0.40;;
61911;SDS011;49973;52.084;5.412;2024-01-30T13:43:07;1.30;;;0.80;;
61911;SDS011;49973;52.084;5.412;2024-01-30T13:45:35;4.00;;;0.60;;
61911;SDS011;49973;52.084;5.412;2024-01-30T13:48:04;1.13;;;0.70;;
61911;SDS011;49973;52.084;5.412;2024-01-30T13:50:35;0.50;;;0.50;;
61911;SDS011;49973;52.084;5.412;2024-01-30T13:53:04;3.93;;;1.03;;
61911;SDS011;49973;52.084;5.412;2024-01-30T13:55:33;1.17;;;0.83;;
61911;SDS011;49973;52.084;5.412;2024-01-30T13:58:02;0.50;;;0.50;;
61911;SDS011;49973;52.084;5.412;2024-01-30T14:00:32;0.97;;;0.40;;
61911;SDS011;49973;52.084;5.412;2024-01-30T14:03:01;0.67;;;0.43;;
61911;SDS011;49973;52.084;5.412;2024-01-30T14:05:30;0.40;;;0.40;;
61911;SDS011;49973;52.084;5.412;2024-01-30T14:08:00;0.40;;;0.40;;
61911;SDS011;49973;52.084;5.412;2024-01-30T14:10:29;0.27;;;0.27;;
61911;SDS011;49973;52.084;5.412;2024-01-30T14:12:58;0.20;;;0.20;;
61911;SDS011;49973;52.084;5.412;2024-01-30T14:15:27;0.10;;;0.10;;
61911;SDS011;49973;52.084;5.412;2024-01-30T14:17:56;0.23;;;0.23;;
61911;SDS011;49973;52.084;5.412;2024-01-30T14:20:26;0.30;;;0.30;;
61911;SDS011;49973;52.084;5.412;2024-01-30T14:22:55;0.73;;;0.50;;
61911;SDS011;49973;52.084;5.412;2024-01-30T14:25:25;0.60;;;0.60;;
61911;SDS011;49973;52.084;5.412;2024-01-30T14:27:54;0.57;;;0.37;;
61911;SDS011;49973;52.084;5.412;2024-01-30T14:30:22;1.63;;;0.37;;
61911;SDS011;49973;52.084;5.412;2024-01-30T14:32:51;0.37;;;0.30;;
61911;SDS011;49973;52.084;5.412;2024-01-30T14:35:20;0.37;;;0.37;;
61911;SDS011;49973;52.084;5.412;2024-01-30T14:37:49;3.70;;;0.37;;
61911;SDS011;49973;52.084;5.412;2024-01-30T14:40:17;0.50;;;0.40;;
61911;SDS011;49973;52.084;5.412;2024-01-30T14:42:48;0.20;;;0.20;;
61911;SDS011;49973;52.084;5.412;2024-01-30T14:45:16;3.10;;;1.00;;
61911;SDS011;49973;52.084;5.412;2024-01-30T14:47:45;0.30;;;0.30;;
61911;SDS011;49973;52.084;5.412;2024-01-30T14:50:14;0.37;;;0.37;;
61911;SDS011;49973;52.084;5.412;2024-01-30T14:52:44;1.17;;;0.80;;
61911;SDS011;49973;52.084;5.412;2024-01-30T14:55:12;0.73;;;0.67;;
61911;SDS011;49973;52.084;5.412;2024-01-30T14:57:41;3.20;;;0.87;;
61911;SDS011;49973;52.084;5.412;2024-01-30T15:00:14;0.50;;;0.47;;
61911;SDS011;49973;52.084;5.412;2024-01-30T15:02:44;0.57;;;0.50;;